Time;durP1;ratioP1;P1;durP2;ratioP2;P2;SDS_P1;SDS_P2;PMS_P1;PMS_P2;Temp;Humidity;BMP_temperature;BMP_pressure;BME280_temperature;BME280_humidity;BME280_pressure;Samples;Min_cycle;Max_cycle;Signal;HPM_P1;HPM_P2
2023/10/07 00:01:27;;;;;;;20.70;8.90;;;;;;;14.36;45.00;100395.22;108193;1254;60393;-65
2023/10/07 00:03:58;;;;;;;21.80;9.40;;;;;;;14.29;45.40;100397.65;108192;1257;75957;-66
2023/10/07 00:06:27;;;;;;;20.20;9.20;;;;;;;14.20;45.52;100392.63;108149;1257;70885;-66
2023/10/07 00:08:58;;;;;;;15.50;8.80;;;;;;;14.17;45.79;100388.70;108152;1254;72663;-66
2023/10/07 00:11:27;;;;;;;21.00;9.10;;;;;;;14.09;45.97;100379.56;108204;1253;61363;-65
2023/10/07 00:13:55;;;;;;;21.00;9.40;;;;;;;14.24;45.74;100371.06;108224;1256;60437;-65
2023/10/07 00:16:23;;;;;;;20.50;9.70;;;;;;;14.43;45.58;100359.02;108192;1254;72568;-66
2023/10/07 00:18:54;;;;;;;20.50;8.80;;;;;;;14.50;45.36;100348.95;108235;1254;69051;-67
2023/10/07 00:21:39;;;;;;;20.30;9.10;;;;;;;14.54;45.48;100345.58;108163;1254;72688;-65
2023/10/07 00:24:07;;;;;;;18.80;8.70;;;;;;;14.78;45.02;100346.19;108149;1257;60850;-66
2023/10/07 00:26:36;;;;;;;21.60;9.80;;;;;;;14.83;44.74;100338.80;108201;1253;60421;-68
2023/10/07 00:29:04;;;;;;;27.60;9.40;;;;;;;14.71;44.98;100336.42;108188;1252;74330;-66
2023/10/07 00:31:33;;;;;;;18.90;9.30;;;;;;;14.70;45.00;100331.38;108178;1254;69932;-67
2023/10/07 00:34:03;;;;;;;19.10;9.00;;;;;;;14.71;44.80;100328.47;108149;1257;73067;-66
2023/10/07 00:36:41;;;;;;;24.60;8.60;;;;;;;14.69;44.81;100331.41;108075;1255;60880;-65
2023/10/07 00:39:12;;;;;;;19.00;7.80;;;;;;;14.68;44.95;100325.48;108164;1255;60312;-66
2023/10/07 00:41:45;;;;;;;19.70;8.10;;;;;;;14.71;44.82;100313.63;108097;1258;73809;-64
2023/10/07 00:44:22;;;;;;;23.00;7.90;;;;;;;14.73;44.98;100307.91;108229;1254;69304;-65
2023/10/07 00:49:54;;;;;;;15.50;7.50;;;;;;;14.90;44.67;100299.26;107772;1260;60402;-64
2023/10/07 00:52:32;;;;;;;18.70;7.20;;;;;;;15.14;44.52;100299.75;108065;1254;61160;-67
2023/10/07 00:55:08;;;;;;;16.80;7.20;;;;;;;15.25;44.20;100291.20;108211;1256;74214;-65
2023/10/07 00:57:37;;;;;;;19.10;8.40;;;;;;;15.38;43.77;100289.46;108248;1253;68505;-66
2023/10/07 01:02:51;;;;;;;16.50;8.60;;;;;;;15.42;43.70;100283.92;108148;1253;63130;-67
2023/10/07 01:05:26;;;;;;;16.30;6.90;;;;;;;15.40;43.78;100283.11;108150;1252;60319;-66
2023/10/07 01:07:55;;;;;;;19.40;8.10;;;;;;;15.44;43.69;100275.30;108185;1255;74215;-68
2023/10/07 01:10:29;;;;;;;26.10;9.20;;;;;;;15.43;43.68;100271.63;108199;1256;68901;-66
2023/10/07 01:13:02;;;;;;;20.50;8.00;;;;;;;15.38;43.83;100263.11;108140;1257;72443;-64
2023/10/07 01:15:31;;;;;;;18.50;8.10;;;;;;;15.45;43.85;100255.26;108121;1260;60293;-66
2023/10/07 01:18:05;;;;;;;20.30;8.30;;;;;;;15.52;43.65;100250.28;108172;1252;60348;-66
2023/10/07 01:20:35;;;;;;;15.30;6.80;;;;;;;15.46;43.67;100244.38;108169;1254;76646;-67
2023/10/07 01:23:07;;;;;;;13.20;7.10;;;;;;;15.48;43.57;100243.95;108196;1254;70341;-67
2023/10/07 01:25:36;;;;;;;14.50;6.20;;;;;;;15.40;43.51;100242.46;108143;1254;72654;-66
2023/10/07 01:28:07;;;;;;;17.60;6.90;;;;;;;15.45;43.61;100238.45;108147;1254;60848;-67
2023/10/07 01:30:35;;;;;;;14.20;6.40;;;;;;;15.31;43.76;100235.83;108155;1256;60319;-67
2023/10/07 01:38:32;;;;;;;13.40;5.90;;;;;;;15.58;43.44;100226.39;108047;1254;72315;-66
2023/10/07 01:41:06;;;;;;;19.00;6.80;;;;;;;15.65;43.26;100218.77;108154;1254;60518;-65
2023/10/07 01:43:40;;;;;;;13.00;5.60;;;;;;;15.73;43.16;100210.38;108096;1254;60371;-64
2023/10/07 01:46:12;;;;;;;16.30;6.80;;;;;;;15.39;43.45;100195.06;108107;1254;72566;-65
2023/10/07 01:48:49;;;;;;;15.30;6.20;;;;;;;15.14;44.30;100193.46;108086;1254;70205;-64
2023/10/07 01:51:18;;;;;;;13.50;6.20;;;;;;;14.99;44.64;100179.59;108046;1260;71257;-66
2023/10/07 01:53:46;;;;;;;15.90;6.70;;;;;;;14.81;44.85;100159.90;108025;1256;60981;-65
2023/10/07 01:56:14;;;;;;;18.50;6.90;;;;;;;14.85;44.98;100144.49;108131;1254;59235;-65
2023/10/07 01:58:42;;;;;;;24.60;6.80;;;;;;;14.85;44.79;100132.27;108081;1259;72548;-66
2023/10/07 02:03:57;;;;;;;13.10;5.90;;;;;;;13.04;49.44;100140.71;105189;1289;601189;-66
2023/10/07 02:06:26;;;;;;;13.60;6.40;;;;;;;14.25;46.45;100138.59;107315;1264;61035;-66
2023/10/07 02:08:57;;;;;;;15.60;6.90;;;;;;;14.68;45.70;100136.20;107343;1264;60045;-66
2023/10/07 02:11:28;;;;;;;14.40;6.80;;;;;;;14.68;45.63;100137.77;107365;1264;72282;-66
2023/10/07 02:13:56;;;;;;;15.70;6.90;;;;;;;14.78;45.19;100140.26;107224;1264;70334;-67
2023/10/07 02:16:25;;;;;;;14.80;6.70;;;;;;;14.92;45.06;100147.46;107111;1263;209276;-67
2023/10/07 02:18:53;;;;;;;12.50;6.80;;;;;;;14.87;45.12;100137.99;107418;1263;59683;-66
2023/10/07 02:21:22;;;;;;;20.10;7.30;;;;;;;14.71;45.39;100132.13;107985;1255;59411;-66
2023/10/07 02:23:50;;;;;;;13.90;6.70;;;;;;;14.54;45.87;100126.17;107982;1257;72283;-67
2023/10/07 02:26:20;;;;;;;15.90;6.60;;;;;;;14.74;45.34;100127.02;107922;1260;68699;-66
2023/10/07 02:28:52;;;;;;;11.60;6.40;;;;;;;14.74;45.45;100127.42;107784;1260;71146;-67
2023/10/07 02:31:21;;;;;;;15.30;6.50;;;;;;;14.76;45.45;100118.07;107915;1260;59684;-66
2023/10/07 02:33:52;;;;;;;13.60;6.50;;;;;;;14.65;45.51;100110.77;107724;1256;59221;-66
2023/10/07 02:36:36;;;;;;;14.80;7.00;;;;;;;14.37;46.27;100108.52;107898;1255;71026;-66
2023/10/07 02:39:48;;;;;;;15.00;6.10;;;;;;;14.06;46.94;100097.05;107902;1256;70252;-66
2023/10/07 02:41:56;;;;;;;19.40;7.10;;;;;;;13.92;47.17;100099.72;107783;1256;72711;-65
2023/10/07 02:44:28;;;;;;;16.00;6.70;;;;;;;14.04;47.24;100100.52;107962;1255;61354;-65
2023/10/07 02:46:56;;;;;;;17.20;6.90;;;;;;;14.25;46.81;100103.27;107786;1257;60191;-66
2023/10/07 02:49:25;;;;;;;14.90;6.80;;;;;;;14.10;46.95;100100.89;107883;1256;73130;-67
2023/10/07 02:51:56;;;;;;;18.00;7.30;;;;;;;13.97;47.54;100090.81;107839;1257;68350;-66
2023/10/07 02:54:32;;;;;;;;;;;;;;;14.06;47.39;100078.02;107721;1257;72655;-67
2023/10/07 02:57:07;;;;;;;17.30;7.00;;;;;;;13.92;47.71;100072.38;107891;1257;60792;-67
2023/10/07 02:59:36;;;;;;;17.80;8.10;;;;;;;14.02;47.64;100060.53;107898;1256;59025;-66
2023/10/07 03:02:12;;;;;;;12.10;6.70;;;;;;;14.18;47.40;100050.02;107996;1256;72992;-67
2023/10/07 03:07:49;;;;;;;20.50;7.50;;;;;;;14.05;48.07;100038.70;107934;1257;71246;-68
2023/10/07 03:10:18;;;;;;;13.90;6.80;;;;;;;14.04;47.90;100027.60;107950;1257;60561;-65
2023/10/07 03:12:56;;;;;;;14.40;7.40;;;;;;;14.13;47.96;100029.63;107865;1257;60120;-66
2023/10/07 03:15:45;;;;;;;16.20;7.00;;;;;;;14.23;47.84;100020.23;107873;1256;72948;-67
2023/10/07 03:18:23;;;;;;;16.90;6.50;;;;;;;14.30;47.73;100019.14;107881;1256;70153;-65
2023/10/07 03:23:48;;;;;;;;;;;;;;;14.54;47.66;100006.39;107620;1257;59886;-67
2023/10/07 03:26:20;;;;;;;16.20;7.00;;;;;;;14.64;47.18;99995.79;107940;1256;59761;-66
2023/10/07 03:28:55;;;;;;;16.60;6.90;;;;;;;14.89;46.76;99987.67;107909;1257;73025;-66
2023/10/07 03:31:35;;;;;;;14.90;6.90;;;;;;;14.94;46.64;99978.20;108049;1256;70126;-63
2023/10/07 03:34:07;;;;;;;17.00;6.90;;;;;;;14.82;46.92;99975.16;108011;1257;71612;-67
2023/10/07 03:36:45;;;;;;;16.20;7.00;;;;;;;14.77;47.24;99966.77;108019;1257;59965;-68
2023/10/07 03:39:22;;;;;;;12.40;7.10;;;;;;;14.83;47.29;99966.27;108001;1259;59683;-66
2023/10/07 03:41:55;;;;;;;16.60;7.20;;;;;;;14.68;47.61;99958.97;108047;1256;75182;-66
2023/10/07 03:44:25;;;;;;;16.40;7.10;;;;;;;14.78;47.47;99950.11;107890;1257;70750;-66
2023/10/07 03:46:57;;;;;;;11.30;6.50;;;;;;;14.96;47.22;99950.80;107868;1256;72907;-66
2023/10/07 03:49:33;;;;;;;15.50;7.60;;;;;;;14.95;47.30;99945.41;108068;1253;59854;-64
2023/10/07 03:52:08;;;;;;;17.90;8.00;;;;;;;15.01;47.26;99940.27;108018;1253;60076;-66
2023/10/07 03:54:35;;;;;;;16.50;8.00;;;;;;;15.12;47.04;99935.59;108123;1253;73482;-66
2023/10/07 03:57:07;;;;;;;23.00;8.80;;;;;;;14.91;47.66;99929.90;108035;1254;70969;-66
2023/10/07 03:59:34;;;;;;;17.80;8.40;;;;;;;15.07;47.53;99926.70;108028;1254;72685;-66
2023/10/07 04:02:12;;;;;;;20.20;8.10;;;;;;;15.15;47.38;99920.54;108100;1254;60836;-67
2023/10/07 04:04:41;;;;;;;19.50;9.20;;;;;;;15.39;47.10;99912.59;108073;1253;60068;-61
2023/10/07 04:07:12;;;;;;;19.50;7.70;;;;;;;15.51;46.95;99900.70;108141;1253;73516;-67
2023/10/07 04:09:42;;;;;;;20.90;8.60;;;;;;;15.48;46.97;99893.61;108129;1254;69955;-66
2023/10/07 04:12:14;;;;;;;17.10;7.00;;;;;;;15.45;47.19;99888.86;108126;1254;71433;-67
2023/10/07 04:14:44;;;;;;;20.70;7.60;;;;;;;15.42;47.42;99879.45;108067;1254;60880;-66
2023/10/07 04:17:12;;;;;;;15.70;7.60;;;;;;;15.72;46.71;99867.54;108101;1254;60084;-63
2023/10/07 04:19:52;;;;;;;14.60;7.80;;;;;;;15.90;46.45;99860.77;108072;1254;73029;-66
2023/10/07 04:22:19;;;;;;;16.80;7.80;;;;;;;16.05;46.13;99854.18;108131;1253;68965;-67
2023/10/07 04:24:48;;;;;;;15.30;6.70;;;;;;;16.18;45.78;99840.56;108077;1253;72744;-67
2023/10/07 04:27:20;;;;;;;20.90;7.20;;;;;;;16.17;46.00;99833.77;108080;1254;60867;-66
2023/10/07 04:29:51;;;;;;;17.40;8.20;;;;;;;16.00;46.35;99828.46;108140;1254;60004;-67
2023/10/07 04:32:21;;;;;;;15.60;8.50;;;;;;;16.23;45.98;99822.74;108119;1253;73794;-65
2023/10/07 04:35:32;;;;;;;16.20;7.40;;;;;;;16.07;46.50;99823.77;108092;1253;69947;-67
2023/10/07 04:37:54;;;;;;;14.20;6.90;;;;;;;16.33;46.08;99816.76;107943;1253;71799;-67
2023/10/07 04:45:49;;;;;;;18.20;6.90;;;;;;;17.19;44.18;99795.04;108084;1253;70793;-66
2023/10/07 04:51:03;;;;;;;14.60;5.80;;;;;;;16.78;44.73;99788.73;108099;1254;72797;-66
2023/10/07 04:53:41;;;;;;;15.20;6.70;;;;;;;16.91;44.19;99785.43;108131;1254;60717;-68
2023/10/07 04:56:10;;;;;;;12.30;5.80;;;;;;;16.96;44.03;99779.75;108130;1253;59413;-67
2023/10/07 04:58:40;;;;;;;12.40;5.90;;;;;;;17.01;43.96;99778.16;108244;1254;71811;-67
2023/10/07 05:01:22;;;;;;;11.00;5.90;;;;;;;17.29;43.36;99771.78;108257;1254;69904;-67
2023/10/07 05:03:55;;;;;;;16.60;6.20;;;;;;;17.56;42.91;99769.86;108054;1253;72646;-67
2023/10/07 05:06:23;;;;;;;11.80;6.00;;;;;;;17.52;42.92;99772.80;108203;1254;62226;-68
2023/10/07 05:08:50;;;;;;;13.70;6.30;;;;;;;17.72;42.39;99767.83;108257;1254;59612;-68
2023/10/07 05:11:18;;;;;;;17.30;7.20;;;;;;;17.80;42.48;99765.98;108138;1254;73486;-66
2023/10/07 05:13:46;;;;;;;13.80;6.30;;;;;;;17.73;42.29;99759.91;108093;1253;68910;-67
2023/10/07 05:16:14;;;;;;;12.10;6.00;;;;;;;17.83;42.04;99754.56;108223;1253;72728;-68
2023/10/07 05:18:42;;;;;;;10.60;5.70;;;;;;;17.96;41.88;99755.44;108052;1254;59776;-66
2023/10/07 05:21:11;;;;;;;14.40;6.60;;;;;;;18.09;41.70;99751.14;108173;1252;59583;-68
2023/10/07 05:23:41;;;;;;;13.70;6.70;;;;;;;18.21;41.57;99745.21;108038;1254;73029;-67
2023/10/07 05:26:09;;;;;;;11.90;6.40;;;;;;;17.97;41.86;99743.65;108126;1253;69972;-65
2023/10/07 05:28:39;;;;;;;12.00;6.30;;;;;;;17.92;42.04;99740.86;108051;1254;72493;-68
2023/10/07 05:31:08;;;;;;;17.70;6.80;;;;;;;17.91;42.19;99736.14;108014;1254;60053;-66
2023/10/07 05:33:36;;;;;;;16.90;6.40;;;;;;;17.84;42.22;99728.78;108064;1254;59487;-68
2023/10/07 05:36:17;;;;;;;17.60;6.60;;;;;;;18.07;42.12;99725.00;108135;1254;71496;-67
2023/10/07 05:38:45;;;;;;;11.30;6.10;;;;;;;18.18;41.92;99711.21;108051;1254;69417;-66
2023/10/07 05:41:14;;;;;;;17.70;6.50;;;;;;;18.20;41.83;99709.79;108080;1254;71911;-66
2023/10/07 05:43:43;;;;;;;14.10;6.40;;;;;;;18.44;41.62;99700.87;107975;1254;62240;-65
2023/10/07 05:46:11;;;;;;;15.20;5.80;;;;;;;18.24;41.87;99694.41;108023;1254;60148;-66
2023/10/07 05:48:40;;;;;;;16.40;6.10;;;;;;;18.18;41.86;99684.88;107999;1253;73051;-67
2023/10/07 05:51:08;;;;;;;17.50;6.10;;;;;;;18.37;41.80;99671.87;107996;1254;69930;-67
2023/10/07 05:53:39;;;;;;;17.60;5.20;;;;;;;18.26;42.09;99664.21;107976;1254;72760;-67
2023/10/07 05:56:06;;;;;;;19.80;6.30;;;;;;;18.40;42.81;99645.92;108006;1254;59587;-67
2023/10/07 05:58:35;;;;;;;12.30;5.90;;;;;;;18.65;42.76;99643.77;107967;1254;59534;-68
2023/10/07 06:01:08;;;;;;;18.40;7.40;;;;;;;18.53;43.00;99635.83;108020;1254;73036;-66
2023/10/07 06:03:36;;;;;;;19.00;6.30;;;;;;;18.66;43.09;99624.86;108097;1253;70138;-68
2023/10/07 06:06:04;;;;;;;15.90;6.70;;;;;;;18.51;43.59;99633.11;108079;1254;70884;-68
2023/10/07 06:08:35;;;;;;;15.30;6.00;;;;;;;18.52;43.89;99631.84;107963;1258;61648;-68
2023/10/07 06:11:04;;;;;;;17.30;5.80;;;;;;;18.51;44.23;99629.38;108023;1254;60171;-67
2023/10/07 06:13:33;;;;;;;19.20;6.10;;;;;;;18.60;44.51;99635.62;108039;1254;73129;-68
2023/10/07 06:16:04;;;;;;;13.40;6.40;;;;;;;18.56;44.83;99632.17;108050;1254;70150;-67
2023/10/07 06:18:34;;;;;;;19.30;7.40;;;;;;;18.60;44.74;99628.31;108028;1253;71915;-68
2023/10/07 06:21:19;;;;;;;17.80;7.80;;;;;;;18.60;45.24;99621.41;108061;1257;61668;-68
2023/10/07 06:23:48;;;;;;;17.70;6.80;;;;;;;18.45;45.67;99611.77;108032;1254;60348;-67
2023/10/07 06:26:16;;;;;;;23.00;7.60;;;;;;;18.31;46.28;99605.91;108019;1254;72563;-65
2023/10/07 06:28:45;;;;;;;19.40;8.10;;;;;;;18.28;46.55;99601.17;108112;1254;68787;-68
2023/10/07 06:31:31;;;;;;;16.10;7.90;;;;;;;18.66;46.11;99592.89;108078;1254;72687;-67
2023/10/07 06:34:00;;;;;;;14.60;6.60;;;;;;;18.74;46.49;99588.11;108067;1254;60545;-69
2023/10/07 06:36:30;;;;;;;14.40;8.00;;;;;;;18.50;47.13;99583.23;108110;1254;60300;-67
2023/10/07 06:38:58;;;;;;;16.30;7.30;;;;;;;18.47;47.57;99578.34;108128;1254;73866;-69
2023/10/07 06:41:29;;;;;;;16.70;7.60;;;;;;;18.59;47.40;99575.98;108025;1254;70132;-64
2023/10/07 06:43:59;;;;;;;16.60;7.10;;;;;;;18.78;47.40;99580.91;108043;1254;72528;-66
2023/10/07 06:46:31;;;;;;;16.80;7.50;;;;;;;18.67;47.74;99581.25;108119;1254;61923;-66
2023/10/07 06:49:03;;;;;;;22.90;7.80;;;;;;;18.71;47.95;99585.19;108056;1254;59995;-67
2023/10/07 06:51:33;;;;;;;20.20;8.60;;;;;;;18.58;48.13;99586.73;108234;1254;73923;-68
2023/10/07 06:54:03;;;;;;;21.60;7.60;;;;;;;18.67;48.27;99596.52;108229;1253;68676;-68
2023/10/07 06:56:33;;;;;;;18.50;8.10;;;;;;;18.60;48.83;99592.94;108188;1254;73777;-68
2023/10/07 06:59:00;;;;;;;17.50;8.40;;;;;;;18.64;48.77;99590.17;108189;1253;60725;-68
2023/10/07 07:01:35;;;;;;;17.70;7.70;;;;;;;18.73;48.89;99589.09;108183;1254;60312;-67
2023/10/07 07:04:14;;;;;;;16.20;6.50;;;;;;;19.22;47.72;99580.59;108080;1254;73809;-69
2023/10/07 07:06:44;;;;;;;22.60;7.70;;;;;;;19.14;48.01;99572.69;108138;1254;69990;-67
2023/10/07 07:12:03;;;;;;;13.20;6.80;;;;;;;19.02;48.51;99552.47;108224;1253;61681;-66
2023/10/07 07:14:31;;;;;;;13.20;7.10;;;;;;;19.18;47.93;99534.78;108074;1253;60377;-68
2023/10/07 07:17:28;;;;;;;15.90;7.20;;;;;;;19.10;48.19;99523.52;108052;1254;72587;-67
2023/10/07 07:19:52;;;;;;;18.10;6.90;;;;;;;19.31;47.85;99515.17;108032;1254;69869;-67
2023/10/07 07:22:22;;;;;;;14.80;6.00;;;;;;;19.57;47.31;99503.24;108148;1253;71291;-68
2023/10/07 07:24:53;;;;;;;15.90;6.10;;;;;;;19.33;47.66;99498.33;108124;1257;61713;-67
2023/10/07 07:27:24;;;;;;;19.00;6.70;;;;;;;19.66;47.13;99487.05;108193;1257;59979;-66
2023/10/07 07:29:51;;;;;;;15.50;6.20;;;;;;;19.15;48.02;99472.02;108198;1254;74095;-67
2023/10/07 07:32:19;;;;;;;13.00;6.00;;;;;;;19.12;48.56;99472.99;108182;1254;70310;-67
2023/10/07 07:34:48;;;;;;;15.50;6.00;;;;;;;19.41;48.15;99472.55;108175;1253;70622;-67
2023/10/07 07:37:16;;;;;;;13.90;5.60;;;;;;;19.37;48.26;99465.61;108247;1256;61676;-69
2023/10/07 07:39:47;;;;;;;13.70;6.00;;;;;;;19.32;48.64;99461.17;108098;1257;60376;-66
2023/10/07 07:42:15;;;;;;;11.00;5.80;;;;;;;19.30;48.92;99455.13;108108;1253;72747;-68
2023/10/07 07:44:56;;;;;;;18.00;6.30;;;;;;;19.37;48.96;99452.02;108144;1254;69299;-67
2023/10/07 07:47:30;;;;;;;16.60;6.10;;;;;;;19.58;48.47;99462.04;107992;1254;74853;-67
2023/10/07 07:50:07;;;;;;;15.60;5.50;;;;;;;19.18;49.45;99452.63;108197;1253;61654;-66
2023/10/07 07:52:35;;;;;;;11.00;5.60;;;;;;;19.09;49.71;99441.29;108215;1254;60657;-64
2023/10/07 07:55:05;;;;;;;14.50;5.40;;;;;;;19.22;49.68;99431.81;108099;1253;73909;-64
2023/10/07 07:57:32;;;;;;;13.20;6.20;;;;;;;19.29;49.59;99422.81;108206;1254;70282;-66
2023/10/07 08:00:00;;;;;;;11.50;5.40;;;;;;;19.08;50.23;99437.44;108164;1254;71777;-65
2023/10/07 08:02:37;;;;;;;13.20;6.40;;;;;;;19.03;50.35;99429.27;108091;1254;61641;-67
2023/10/07 08:05:07;;;;;;;13.50;6.60;;;;;;;19.09;50.48;99426.31;108128;1258;61598;-66
2023/10/07 08:07:38;;;;;;;16.80;6.30;;;;;;;19.12;50.45;99426.45;108165;1254;73861;-67
2023/10/07 08:10:10;;;;;;;13.70;6.10;;;;;;;19.33;50.27;99422.88;108136;1254;69431;-67
2023/10/07 08:12:38;;;;;;;12.20;6.10;;;;;;;19.15;50.53;99417.46;108150;1254;72762;-67
2023/10/07 08:17:41;;;;;;;10.60;5.20;;;;;;;19.15;51.25;99399.98;108236;1253;60341;-67
2023/10/07 08:20:12;;;;;;;12.40;5.80;;;;;;;18.63;52.30;99393.23;108198;1254;73006;-69
2023/10/07 08:22:45;;;;;;;14.40;6.90;;;;;;;18.73;52.47;99398.46;108221;1254;68914;-65
2023/10/07 08:25:25;;;;;;;12.60;6.00;;;;;;;18.97;52.08;99394.73;108121;1253;71480;-67
2023/10/07 08:27:55;;;;;;;12.80;6.00;;;;;;;19.25;51.53;99384.93;108197;1253;60630;-68
2023/10/07 08:30:37;;;;;;;11.30;5.70;;;;;;;19.49;51.12;99391.59;108200;1256;60967;-68
2023/10/07 08:33:12;;;;;;;9.60;4.50;;;;;;;19.30;51.76;99383.45;108135;1254;73870;-68
2023/10/07 08:35:43;;;;;;;16.50;6.80;;;;;;;19.26;51.83;99374.72;108054;1257;69927;-67
2023/10/07 08:38:29;;;;;;;17.20;6.00;;;;;;;19.15;52.36;99375.27;108175;1253;72739;-66
2023/10/07 08:41:07;;;;;;;12.50;6.70;;;;;;;19.11;52.75;99373.67;108228;1254;61670;-67
2023/10/07 08:43:43;;;;;;;13.20;7.30;;;;;;;18.98;52.99;99374.56;108178;1254;60291;-68
2023/10/07 08:46:19;;;;;;;14.90;6.00;;;;;;;19.35;52.32;99373.23;108161;1252;73940;-66
2023/10/07 08:48:50;;;;;;;16.30;5.90;;;;;;;19.02;53.19;99368.34;108217;1254;69957;-69
2023/10/07 08:51:22;;;;;;;18.70;6.70;;;;;;;19.21;52.86;99355.55;108113;1254;71474;-68
2023/10/07 08:53:57;;;;;;;12.80;6.60;;;;;;;19.49;52.34;99355.06;108220;1254;60526;-67
2023/10/07 08:56:27;;;;;;;14.80;6.10;;;;;;;19.16;52.92;99343.34;108148;1254;60463;-68
2023/10/07 08:58:55;;;;;;;13.30;6.90;;;;;;;19.15;53.17;99347.98;108004;1254;73850;-67
2023/10/07 09:01:24;;;;;;;13.40;6.40;;;;;;;19.20;53.08;99331.27;107898;1254;68759;-67
2023/10/07 09:04:00;;;;;;;14.00;6.70;;;;;;;19.35;52.68;99327.80;107923;1254;71805;-67
2023/10/07 09:06:34;;;;;;;11.80;6.10;;;;;;;19.46;52.45;99335.05;108022;1254;62071;-68
2023/10/07 09:09:07;;;;;;;11.40;6.30;;;;;;;19.17;53.22;99320.80;108165;1253;60338;-67
2023/10/07 09:11:38;;;;;;;13.80;6.60;;;;;;;19.48;52.55;99331.36;108133;1254;73089;-68
2023/10/07 09:14:18;;;;;;;14.30;6.60;;;;;;;19.60;52.42;99324.23;108199;1254;70280;-67
2023/10/07 09:16:46;;;;;;;11.60;6.90;;;;;;;19.39;52.95;99300.27;108081;1254;72670;-67
2023/10/07 09:19:19;;;;;;;14.00;6.70;;;;;;;19.78;52.12;99305.04;108187;1254;61641;-68
2023/10/07 09:21:56;;;;;;;9.90;5.80;;;;;;;19.78;51.84;99293.15;108071;1259;60335;-67
2023/10/07 09:24:24;;;;;;;12.30;6.30;;;;;;;19.58;52.27;99297.55;108041;1254;73910;-68
2023/10/07 09:26:58;;;;;;;10.80;6.50;;;;;;;19.75;51.92;99303.33;108122;1258;68832;-70
2023/10/07 09:29:27;;;;;;;13.00;6.60;;;;;;;19.90;51.79;99286.37;108092;1254;71429;-68
2023/10/07 09:32:04;;;;;;;16.60;5.90;;;;;;;20.09;51.35;99300.91;108168;1253;61608;-68
2023/10/07 09:34:41;;;;;;;15.50;6.80;;;;;;;19.85;51.74;99280.91;108128;1254;60420;-66
2023/10/07 09:37:13;;;;;;;12.60;6.10;;;;;;;19.98;51.50;99290.64;108002;1253;73812;-69
2023/10/07 09:39:44;;;;;;;14.90;6.90;;;;;;;20.05;51.48;99279.65;108182;1254;70192;-68
2023/10/07 09:42:36;;;;;;;11.50;6.30;;;;;;;20.20;50.83;99279.77;108119;1259;72641;-68
2023/10/07 09:47:38;;;;;;;;;;;;;;;20.48;49.92;99286.29;108133;1254;60211;-68
2023/10/07 09:50:19;;;;;;;15.90;6.40;;;;;;;20.10;50.56;99272.98;108271;1254;74326;-67
2023/10/07 09:52:51;;;;;;;;;;;;;;;20.31;50.14;99264.70;108065;1254;70024;-68
2023/10/07 09:55:43;;;;;;;15.20;6.60;;;;;;;20.48;50.01;99257.79;108167;1253;73123;-67
2023/10/07 09:58:17;;;;;;;12.50;6.00;;;;;;;20.72;49.83;99248.61;108210;1254;61616;-68
2023/10/07 10:01:29;;;;;;;17.40;6.80;;;;;;;20.63;49.85;99241.75;108040;1254;60325;-68
2023/10/07 10:04:36;;;;;;;15.70;7.30;;;;;;;20.57;50.09;99242.11;107842;1254;72671;-68
2023/10/07 10:07:26;;;;;;;11.50;6.10;;;;;;;20.67;49.85;99230.91;107866;1253;69994;-68
2023/10/07 10:10:07;;;;;;;17.80;7.10;;;;;;;20.56;50.17;99221.01;108166;1254;72814;-67
2023/10/07 10:13:29;;;;;;;15.60;7.40;;;;;;;20.58;50.00;99220.28;108026;1254;61882;-69
2023/10/07 10:18:06;;;;;;;13.20;7.00;;;;;;;20.82;49.85;99211.30;108139;1254;71453;-68
2023/10/07 10:20:42;;;;;;;21.10;8.30;;;;;;;20.82;49.51;99198.98;108242;1254;70016;-68
2023/10/07 10:23:25;;;;;;;16.40;8.90;;;;;;;20.92;49.13;99191.45;108288;1253;72580;-68
2023/10/07 10:25:53;;;;;;;17.90;8.00;;;;;;;21.23;48.68;99184.57;108117;1254;61631;-68
2023/10/07 10:28:31;;;;;;;13.40;6.30;;;;;;;21.07;48.95;99185.33;108142;1254;60309;-68
2023/10/07 10:30:59;;;;;;;13.20;6.90;;;;;;;21.17;48.92;99176.02;108127;1254;73823;-67
2023/10/07 10:33:28;;;;;;;12.60;6.30;;;;;;;21.40;48.61;99171.67;108155;1254;70132;-67
2023/10/07 10:35:57;;;;;;;11.60;5.90;;;;;;;21.36;48.05;99168.70;108077;1254;73385;-68
2023/10/07 10:38:38;;;;;;;12.90;6.40;;;;;;;21.45;47.73;99165.80;107980;1254;61681;-68
2023/10/07 10:41:08;;;;;;;11.60;6.90;;;;;;;21.56;47.79;99153.52;108135;1253;60440;-68
2023/10/07 10:43:36;;;;;;;13.60;6.60;;;;;;;21.52;47.64;99147.98;108068;1254;73354;-68
2023/10/07 10:46:05;;;;;;;13.20;6.90;;;;;;;21.96;46.68;99140.25;108106;1258;70167;-68
2023/10/07 10:48:34;;;;;;;15.70;6.80;;;;;;;22.30;45.81;99137.75;108177;1254;71563;-68
2023/10/07 10:51:05;;;;;;;13.30;6.20;;;;;;;22.13;46.10;99132.12;108121;1253;61642;-69
2023/10/07 10:53:33;;;;;;;16.10;6.40;;;;;;;21.71;46.86;99130.27;108157;1254;61954;-68
2023/10/07 10:56:04;;;;;;;13.20;6.00;;;;;;;21.68;46.84;99130.58;108121;1253;72796;-67
2023/10/07 10:58:36;;;;;;;14.30;6.20;;;;;;;21.96;46.00;99132.02;108088;1258;69992;-68
2023/10/07 11:01:07;;;;;;;14.60;5.60;;;;;;;22.14;45.75;99132.02;108203;1254;72668;-69
2023/10/07 11:03:36;;;;;;;14.80;5.70;;;;;;;21.77;46.32;99129.11;108022;1254;60729;-68
2023/10/07 11:06:09;;;;;;;10.30;4.40;;;;;;;22.03;45.80;99123.89;108160;1254;60206;-68
2023/10/07 11:08:37;;;;;;;11.90;5.80;;;;;;;22.32;45.04;99121.45;108108;1259;72598;-69
2023/10/07 11:11:10;;;;;;;13.40;6.10;;;;;;;22.47;44.68;99119.57;108091;1254;69120;-68
2023/10/07 11:13:39;;;;;;;9.10;5.30;;;;;;;22.48;44.61;99117.89;108186;1257;72448;-68
2023/10/07 11:16:10;;;;;;;13.90;6.50;;;;;;;22.78;44.05;99106.83;108155;1256;62183;-69
2023/10/07 11:18:41;;;;;;;11.20;5.70;;;;;;;23.11;43.29;99105.65;108092;1253;60221;-68
2023/10/07 11:21:09;;;;;;;12.00;5.60;;;;;;;22.97;43.39;99098.54;108177;1254;73849;-68
2023/10/07 11:23:46;;;;;;;16.00;5.40;;;;;;;22.98;43.15;99103.21;108089;1254;70665;-68
2023/10/07 11:26:14;;;;;;;12.00;5.00;;;;;;;22.88;43.28;99103.73;108101;1253;71413;-67
2023/10/07 11:28:43;;;;;;;9.60;5.80;;;;;;;23.08;42.83;99103.60;107874;1254;61690;-68
2023/10/07 11:31:11;;;;;;;14.80;5.00;;;;;;;23.17;42.44;99102.68;108101;1254;60300;-66
2023/10/07 11:33:51;;;;;;;15.00;5.10;;;;;;;22.91;43.11;99104.61;108162;1253;74381;-71
2023/10/07 11:36:19;;;;;;;11.70;5.50;;;;;;;23.31;42.56;99093.81;108143;1254;69588;-68
2023/10/07 11:38:47;;;;;;;16.30;5.70;;;;;;;23.03;42.82;99091.77;108186;1254;73129;-68
2023/10/07 11:41:16;;;;;;;10.40;5.40;;;;;;;23.26;42.54;99088.25;108157;1254;61786;-67
2023/10/07 11:43:44;;;;;;;18.50;4.90;;;;;;;23.37;42.03;99090.53;107928;1254;60303;-68
2023/10/07 11:46:13;;;;;;;8.40;4.40;;;;;;;23.18;42.54;99098.95;108077;1254;73912;-68
2023/10/07 11:48:44;;;;;;;11.20;4.50;;;;;;;23.43;42.21;99097.05;108012;1254;68415;-66
2023/10/07 11:51:12;;;;;;;9.70;4.50;;;;;;;23.88;41.24;99096.70;107942;1254;72711;-68
2023/10/07 11:53:41;;;;;;;10.80;5.00;;;;;;;23.50;41.80;99108.13;108115;1254;61670;-68
2023/10/07 11:56:11;;;;;;;13.00;4.80;;;;;;;23.56;41.74;99108.52;108006;1260;62003;-66
2023/10/07 11:58:41;;;;;;;13.60;6.00;;;;;;;23.68;41.53;99106.11;107987;1254;73949;-67
2023/10/07 12:01:11;;;;;;;11.20;4.60;;;;;;;23.79;41.66;99108.39;108137;1254;70362;-67
2023/10/07 12:03:39;;;;;;;10.90;3.70;;;;;;;23.89;41.48;99101.41;108030;1258;72712;-67
2023/10/07 12:06:08;;;;;;;10.10;3.90;;;;;;;23.71;41.71;99104.39;108071;1254;60442;-71
2023/10/07 12:08:36;;;;;;;10.40;4.70;;;;;;;23.74;41.95;99094.58;108071;1254;60617;-67
2023/10/07 12:11:05;;;;;;;13.40;5.00;;;;;;;24.17;41.49;99090.42;108064;1254;74382;-67
2023/10/07 12:13:32;;;;;;;12.40;5.00;;;;;;;24.01;41.97;99090.30;108093;1254;73972;-66
2023/10/07 12:16:00;;;;;;;13.60;4.70;;;;;;;23.80;42.22;99093.33;108053;1259;72680;-68
2023/10/07 12:18:32;;;;;;;8.80;4.20;;;;;;;23.86;42.17;99090.66;108082;1254;62285;-67